Time;durP1;ratioP1;P1;durP2;ratioP2;P2;SDS_P1;SDS_P2;PMS_P1;PMS_P2;Temp;Humidity;BMP_temperature;BMP_pressure;BME280_temperature;BME280_humidity;BME280_pressure;Samples;Min_cycle;Max_cycle;Signal;HPM_P1;HPM_P2
2022/02/08 00:02:22;;;;;;;0.50;0.32;;;;;;;12.14;100.00;100454.38;5007069;28;20060;-80
2022/02/08 00:05:26;;;;;;;0.82;0.57;;;;;;;12.10;100.00;100462.16;5019185;28;20064;-81
2022/02/08 00:08:30;;;;;;;0.52;0.52;;;;;;;11.99;100.00;100461.91;5031790;28;20049;-81
2022/02/08 00:11:33;;;;;;;0.17;0.15;;;;;;;11.99;100.00;100461.13;4992057;28;20069;-81
2022/02/08 00:14:37;;;;;;;0.95;0.63;;;;;;;12.02;100.00;100452.56;4979840;28;20058;-80
2022/02/08 00:17:40;;;;;;;5.90;0.75;;;;;;;11.94;100.00;100465.31;4991554;28;20053;-81
2022/02/08 00:20:43;;;;;;;2.38;0.40;;;;;;;11.92;100.00;100458.66;4993323;28;20056;-81
2022/02/08 00:23:47;;;;;;;0.55;0.20;;;;;;;11.86;100.00;100458.53;5011170;28;20053;-81
2022/02/08 00:26:50;;;;;;;0.10;0.10;;;;;;;11.85;100.00;100456.97;4999116;28;20057;-80
2022/02/08 00:29:53;;;;;;;0.10;0.00;;;;;;;11.82;100.00;100469.09;5011017;28;20057;-81
2022/02/08 00:32:57;;;;;;;0.15;0.13;;;;;;;11.96;100.00;100471.19;4999308;28;20407;-81
2022/02/08 00:36:00;;;;;;;1.65;0.65;;;;;;;11.98;100.00;100465.13;4999127;28;20057;-81
2022/02/08 00:39:07;;;;;;;2.67;0.40;;;;;;;11.99;100.00;100459.09;4999127;28;20053;-81
2022/02/08 00:42:12;;;;;;;0.13;0.10;;;;;;;12.01;100.00;100472.59;4999207;28;20057;-80
2022/02/08 00:45:46;;;;;;;0.10;0.10;;;;;;;12.05;100.00;100470.38;5010381;28;20061;-80
2022/02/08 00:49:01;;;;;;;0.10;0.10;;;;;;;11.99;100.00;100467.47;5010249;28;20411;-80
2022/02/08 00:52:10;;;;;;;6.20;0.57;;;;;;;11.91;100.00;100460.66;4999254;28;20069;-81
2022/02/08 00:55:14;;;;;;;2.45;0.28;;;;;;;11.97;100.00;100458.81;5010500;28;20049;-81
2022/02/08 00:58:17;;;;;;;0.30;0.30;;;;;;;12.07;100.00;100460.31;5028220;28;20407;-81
2022/02/08 01:01:21;;;;;;;4.82;0.38;;;;;;;12.03;100.00;100456.13;5010678;28;20057;-81
2022/02/08 01:04:25;;;;;;;0.10;0.10;;;;;;;11.93;100.00;100458.16;4998998;28;20403;-81
2022/02/08 01:07:29;;;;;;;1.65;0.30;;;;;;;11.95;100.00;100454.94;5001457;28;20053;-80
2022/02/08 01:10:37;;;;;;;5.60;0.35;;;;;;;12.01;100.00;100459.41;5002350;28;20060;-81
2022/02/08 01:13:41;;;;;;;3.35;0.40;;;;;;;12.01;100.00;100442.66;5002975;28;20439;-80
2022/02/08 01:16:45;;;;;;;0.28;0.25;;;;;;;12.07;100.00;100454.72;5003655;28;20053;-81
2022/02/08 01:20:00;;;;;;;7.53;0.57;;;;;;;12.01;100.00;100439.09;4996251;28;20066;-81
2022/02/08 01:23:06;;;;;;;1.08;0.95;;;;;;;11.95;100.00;100438.94;4983152;28;20073;-81
2022/02/08 01:26:14;;;;;;;6.82;1.20;;;;;;;11.99;100.00;100439.56;4983182;28;20507;-81
2022/02/08 01:29:24;;;;;;;0.40;0.40;;;;;;;12.02;100.00;100438.59;4997591;28;20053;-81
2022/02/08 01:38:54;;;;;;;1.63;0.40;;;;;;;12.35;100.00;100449.00;5014400;28;20053;-82
2022/02/08 01:45:34;;;;;;;0.10;0.10;;;;;;;12.37;100.00;100440.91;5014373;28;20052;-82
2022/02/08 01:51:50;;;;;;;1.88;0.40;;;;;;;12.36;100.00;100444.97;5014468;28;20072;-81
2022/02/08 01:54:55;;;;;;;0.10;0.10;;;;;;;12.40;100.00;100448.38;5001828;28;20057;-81
2022/02/08 01:58:01;;;;;;;0.38;0.38;;;;;;;12.28;100.00;100449.38;5018285;28;20072;-81
2022/02/08 02:01:05;;;;;;;4.47;0.20;;;;;;;12.32;100.00;100461.13;5004384;28;20057;-81
2022/02/08 02:04:09;;;;;;;0.70;0.32;;;;;;;12.43;100.00;100456.56;5013622;28;20052;-81
2022/02/08 02:07:12;;;;;;;0.80;0.13;;;;;;;12.41;100.00;100456.25;5001223;28;20072;-81
2022/02/08 02:10:18;;;;;;;0.30;0.10;;;;;;;12.44;100.00;100448.97;5013758;28;20503;-81
2022/02/08 02:19:58;;;;;;;0.30;0.30;;;;;;;12.51;100.00;100429.06;5004705;28;20408;-81
2022/02/08 02:23:02;;;;;;;0.57;0.47;;;;;;;12.52;100.00;100433.38;5001801;28;20057;-81
2022/02/08 02:26:05;;;;;;;1.95;0.25;;;;;;;12.43;100.00;100422.28;5001147;28;20121;-81
2022/02/08 02:29:11;;;;;;;0.10;0.10;;;;;;;12.43;100.00;100411.88;5013182;28;20057;-81
2022/02/08 02:32:15;;;;;;;0.30;0.30;;;;;;;12.31;100.00;100403.72;5002118;28;20069;-81
2022/02/08 02:35:18;;;;;;;0.70;0.70;;;;;;;12.34;100.00;100416.75;5013633;28;20053;-81
2022/02/08 02:38:24;;;;;;;2.30;0.75;;;;;;;12.28;100.00;100399.09;5013607;28;20053;-81
2022/02/08 02:41:35;;;;;;;0.10;0.10;;;;;;;12.13;100.00;100401.78;5001322;28;20065;-81
2022/02/08 02:44:39;;;;;;;0.35;0.35;;;;;;;11.97;100.00;100400.19;5013616;28;20562;-81
2022/02/08 02:47:42;;;;;;;0.43;0.28;;;;;;;11.92;100.00;100392.44;5000828;28;20049;-81
2022/02/08 02:50:53;;;;;;;3.97;0.47;;;;;;;11.97;100.00;100405.75;5000729;28;20053;-81
2022/02/08 02:53:56;;;;;;;0.10;0.00;;;;;;;11.81;100.00;100394.97;5013366;28;20049;-81
2022/02/08 02:57:01;;;;;;;0.45;0.20;;;;;;;11.79;100.00;100394.66;5009603;28;20052;-81
2022/02/08 03:00:10;;;;;;;0.30;0.30;;;;;;;11.70;100.00;100382.75;5011090;28;20057;-81
2022/02/08 03:19:49;;;;;;;0.20;0.15;;;;;;;11.85;100.00;100392.78;5012710;28;20053;-81
2022/02/08 03:22:53;;;;;;;1.38;0.55;;;;;;;11.87;100.00;100386.72;5000513;28;20057;-81
2022/02/08 03:25:56;;;;;;;1.20;0.45;;;;;;;11.86;100.00;100383.16;5000715;28;20064;-81
2022/02/08 03:28:59;;;;;;;0.40;0.40;;;;;;;11.87;100.00;100387.50;5011980;28;20064;-81
2022/02/08 03:32:03;;;;;;;0.35;0.20;;;;;;;11.88;100.00;100394.63;5012892;28;20400;-81
2022/02/08 03:35:08;;;;;;;1.10;0.20;;;;;;;12.03;100.00;100398.28;5000072;28;20404;-81
2022/02/08 03:38:15;;;;;;;0.22;0.15;;;;;;;12.18;100.00;100401.94;5012535;28;20057;-81
2022/02/08 03:41:18;;;;;;;1.65;0.55;;;;;;;12.24;100.00;100390.09;5012009;28;20065;-81
2022/02/08 03:44:30;;;;;;;0.75;0.32;;;;;;;12.30;100.00;100386.19;5012482;28;20057;-81
2022/02/08 03:47:35;;;;;;;1.17;0.15;;;;;;;12.34;100.00;100411.16;5012165;28;20053;-81
2022/02/08 03:50:38;;;;;;;0.68;0.57;;;;;;;12.45;100.00;100405.81;4999635;28;20411;-81
2022/02/08 03:53:44;;;;;;;3.60;0.50;;;;;;;12.56;100.00;100406.81;5000119;28;20061;-81
2022/02/08 03:56:48;;;;;;;2.42;0.22;;;;;;;12.58;100.00;100397.97;5006761;28;20056;-81
2022/02/08 03:59:51;;;;;;;2.47;0.28;;;;;;;12.59;100.00;100403.09;5012837;28;20511;-81
2022/02/08 04:02:57;;;;;;;0.10;0.10;;;;;;;12.53;100.00;100401.41;5011968;28;20064;-81
2022/02/08 04:06:01;;;;;;;6.63;0.22;;;;;;;12.56;100.00;100398.44;5011650;28;20506;-81
2022/02/08 04:09:07;;;;;;;2.35;0.45;;;;;;;12.49;100.00;100398.03;5000215;28;20057;-81
2022/02/08 04:12:24;;;;;;;2.75;0.52;;;;;;;12.63;100.00;100400.09;5031562;28;20052;-81
2022/02/08 04:35:33;;;;;;;1.08;0.30;;;;;;;12.67;100.00;100386.72;4991473;28;20057;-81
2022/02/08 04:38:59;;;;;;;0.10;0.10;;;;;;;12.65;100.00;100394.81;4992043;28;20081;-81
2022/02/08 04:42:14;;;;;;;1.65;0.57;;;;;;;12.61;100.00;100394.22;4984883;28;20104;-81
2022/02/08 04:45:32;;;;;;;5.70;0.38;;;;;;;12.51;100.00;100398.34;4986019;28;20053;-81
2022/02/08 04:51:50;;;;;;;3.20;0.47;;;;;;;12.52;100.00;100408.25;4997983;28;20050;-81
2022/02/08 04:55:09;;;;;;;0.10;0.05;;;;;;;12.51;100.00;100412.31;4997656;28;20049;-81
2022/02/08 05:42:31;;;;;;;0.32;0.30;;;;;;;12.42;100.00;100409.56;5016904;28;20053;-81
2022/02/08 05:48:32;;;;;;;0.17;0.10;;;;;;;12.26;100.00;100385.59;5017472;28;20045;-81
2022/02/08 05:54:54;;;;;;;0.10;0.10;;;;;;;12.07;100.00;100376.56;4994457;28;20057;-81
2022/02/08 05:57:57;;;;;;;0.28;0.28;;;;;;;12.08;100.00;100394.84;5027494;28;20048;-81
2022/02/08 06:01:01;;;;;;;1.25;0.82;;;;;;;12.10;100.00;100400.75;5017990;28;20057;-80
2022/02/08 06:04:04;;;;;;;0.30;0.30;;;;;;;12.06;100.00;100391.75;5001933;28;20502;-81
2022/02/08 06:07:08;;;;;;;1.65;0.35;;;;;;;11.97;100.00;100377.06;5002153;28;20065;-82
2022/02/08 06:10:11;;;;;;;0.10;0.10;;;;;;;11.94;100.00;100381.56;5001806;28;20057;-81
2022/02/08 06:13:16;;;;;;;0.10;0.00;;;;;;;11.97;100.00;100386.22;5001681;28;20061;-81
2022/02/08 06:16:21;;;;;;;0.95;0.10;;;;;;;11.98;100.00;100384.97;5001789;28;20546;-81
2022/02/08 06:19:25;;;;;;;1.25;0.32;;;;;;;11.96;100.00;100379.09;5001169;28;20518;-81
2022/02/08 06:22:28;;;;;;;2.38;0.50;;;;;;;11.92;100.00;100398.03;5013648;28;20053;-81
2022/02/08 06:25:32;;;;;;;0.10;0.10;;;;;;;12.00;100.00;100395.66;5001466;28;20057;-80
2022/02/08 06:28:36;;;;;;;0.10;0.10;;;;;;;12.14;100.00;100398.56;5014173;28;20045;-81
2022/02/08 06:31:41;;;;;;;0.85;0.63;;;;;;;12.22;100.00;100390.59;5001413;28;20057;-81
2022/02/08 06:34:45;;;;;;;1.92;0.50;;;;;;;12.23;100.00;100394.16;5013213;28;20064;-81
2022/02/08 06:37:49;;;;;;;8.30;0.40;;;;;;;12.25;100.00;100398.03;5001705;28;20061;-81
2022/02/08 06:40:54;;;;;;;0.38;0.35;;;;;;;12.32;100.00;100396.91;5014086;28;20069;-81
2022/02/08 06:44:00;;;;;;;1.17;0.38;;;;;;;12.37;100.00;100402.59;5001204;28;20076;-81
2022/02/08 06:47:05;;;;;;;4.43;0.95;;;;;;;12.34;100.00;100389.59;5001263;28;20531;-80
2022/02/08 06:50:10;;;;;;;3.60;0.73;;;;;;;12.25;100.00;100394.44;5000712;28;20065;-82
2022/02/08 06:53:14;;;;;;;3.92;0.90;;;;;;;12.27;100.00;100395.53;5001198;28;20065;-82
2022/02/08 06:56:17;;;;;;;0.20;0.17;;;;;;;12.27;100.00;100395.53;5003624;28;20049;-81
2022/02/08 06:59:21;;;;;;;2.30;0.30;;;;;;;12.34;100.00;100408.38;5017333;28;20534;-82
2022/02/08 07:02:24;;;;;;;0.30;0.30;;;;;;;12.33;100.00;100404.00;5000776;28;20444;-81
2022/02/08 07:05:28;;;;;;;0.10;0.08;;;;;;;12.29;100.00;100400.63;5011948;28;20304;-82
2022/02/08 07:08:31;;;;;;;2.45;0.63;;;;;;;12.41;100.00;100408.03;5000954;28;20411;-82
2022/02/08 07:11:35;;;;;;;3.60;0.75;;;;;;;12.46;100.00;100415.75;5000560;28;20056;-82
2022/02/08 07:14:40;;;;;;;1.38;0.40;;;;;;;12.43;100.00;100405.53;5000891;28;20076;-81
2022/02/08 07:17:43;;;;;;;5.45;1.48;;;;;;;12.37;100.00;100419.34;5000112;28;20603;-82
2022/02/08 07:20:46;;;;;;;4.15;1.23;;;;;;;12.48;100.00;100402.84;5000401;28;20056;-82
2022/02/08 07:23:50;;;;;;;3.47;1.08;;;;;;;12.47;100.00;100414.50;5000234;28;20064;-82
2022/02/08 07:26:55;;;;;;;2.22;0.43;;;;;;;12.44;100.00;100421.81;5000541;28;20053;-81
2022/02/08 07:29:59;;;;;;;4.35;0.80;;;;;;;12.36;100.00;100417.03;5012107;28;20129;-81
2022/02/08 07:33:03;;;;;;;5.43;0.90;;;;;;;12.27;100.00;100406.69;5005020;28;20514;-81
2022/02/08 07:36:46;;;;;;;4.40;1.08;;;;;;;12.24;100.00;100434.78;5007389;28;20049;-81
2022/02/08 07:39:46;;;;;;;1.65;0.38;;;;;;;12.16;100.00;100426.78;5017456;28;20072;-82
2022/02/08 07:42:49;;;;;;;0.93;0.43;;;;;;;12.15;100.00;100436.38;5006246;28;20057;-81
2022/02/08 07:45:53;;;;;;;0.63;0.25;;;;;;;12.16;100.00;100451.91;5005713;28;20068;-81
2022/02/08 07:48:57;;;;;;;10.98;0.52;;;;;;;12.19;100.00;100448.16;5018458;28;20533;-81
2022/02/08 07:52:00;;;;;;;7.78;0.65;;;;;;;12.27;100.00;100459.75;5005694;28;20054;-81
2022/02/08 07:55:04;;;;;;;0.75;0.75;;;;;;;12.34;100.00;100455.84;5007669;28;20053;-81
2022/02/08 07:58:08;;;;;;;1.42;0.90;;;;;;;12.41;100.00;100458.31;5008390;28;20057;-81
2022/02/08 08:01:13;;;;;;;0.98;0.52;;;;;;;12.38;100.00;100471.19;5008183;28;20053;-82
2022/02/08 08:04:16;;;;;;;1.40;0.40;;;;;;;12.50;100.00;100472.97;4979118;28;20507;-81
2022/02/08 08:07:19;;;;;;;8.05;1.08;;;;;;;12.41;100.00;100470.22;4979454;28;20054;-81
2022/02/08 08:10:27;;;;;;;0.82;0.50;;;;;;;12.54;100.00;100470.03;4990661;28;20057;-83
2022/02/08 08:13:37;;;;;;;1.63;0.43;;;;;;;12.66;100.00;100485.78;4999085;28;20057;-82
2022/02/08 08:19:47;;;;;;;1.08;0.30;;;;;;;12.80;100.00;100473.88;5011494;28;20052;-82
2022/02/08 08:22:50;;;;;;;5.82;0.32;;;;;;;12.83;100.00;100462.53;4999452;28;20423;-83
2022/02/08 08:25:54;;;;;;;1.65;0.30;;;;;;;12.90;100.00;100467.78;5011719;28;20053;-83
2022/02/08 08:28:57;;;;;;;0.10;0.10;;;;;;;12.97;100.00;100460.28;5003056;28;20057;-84
2022/02/08 08:32:04;;;;;;;9.85;0.35;;;;;;;13.18;100.00;100462.00;5012452;28;20052;-84
2022/02/08 08:35:08;;;;;;;0.75;0.40;;;;;;;13.30;100.00;100464.53;5000154;28;20056;-84
2022/02/08 08:38:16;;;;;;;0.47;0.30;;;;;;;13.37;100.00;100469.75;4999678;28;20052;-84
2022/02/08 08:41:47;;;;;;;3.10;0.90;;;;;;;13.24;100.00;100463.66;5011456;28;20072;-85
2022/02/08 08:54:20;;;;;;;0.10;0.00;;;;;;;13.76;100.00;100469.69;5011635;28;20061;-84
2022/02/08 08:57:29;;;;;;;0.20;0.10;;;;;;;13.87;100.00;100464.28;5011193;28;20056;-83
2022/02/08 09:00:32;;;;;;;4.38;0.85;;;;;;;13.81;100.00;100472.59;5018658;28;20494;-82
2022/02/08 09:03:36;;;;;;;0.75;0.20;;;;;;;13.85;100.00;100472.41;4999497;28;20061;-84
2022/02/08 09:06:39;;;;;;;0.10;0.10;;;;;;;13.91;100.00;100476.84;4999724;28;20587;-83
2022/02/08 09:09:46;;;;;;;0.32;0.15;;;;;;;13.86;100.00;100479.56;4999105;28;20065;-83
2022/02/08 09:19:31;;;;;;;0.70;0.22;;;;;;;14.02;100.00;100476.25;5011100;28;20515;-83
2022/02/08 09:28:52;;;;;;;5.93;0.93;;;;;;;14.21;100.00;100469.16;5014216;28;20053;-85
2022/02/08 09:32:03;;;;;;;0.80;0.25;;;;;;;14.26;100.00;100471.28;4983537;28;20057;-84
2022/02/08 09:35:08;;;;;;;0.40;0.10;;;;;;;14.34;100.00;100466.84;4983498;28;20069;-85
2022/02/08 09:38:12;;;;;;;0.10;0.00;;;;;;;14.35;100.00;100466.38;4984092;28;20053;-86
2022/02/08 09:41:17;;;;;;;0.10;0.00;;;;;;;14.31;100.00;100465.78;5001700;28;20082;-86
2022/02/08 09:44:26;;;;;;;0.10;0.00;;;;;;;14.38;100.00;100470.22;5015225;28;20057;-86
2022/02/08 09:47:39;;;;;;;2.30;0.40;;;;;;;14.41;100.00;100458.81;5003111;28;20053;-86
2022/02/08 09:50:43;;;;;;;0.90;0.30;;;;;;;14.49;100.00;100478.78;5002915;28;20052;-87
2022/02/08 09:53:46;;;;;;;0.40;0.20;;;;;;;14.58;100.00;100470.28;5002920;28;20521;-86
2022/02/08 09:56:49;;;;;;;3.40;1.38;;;;;;;14.64;100.00;100457.09;5023344;28;20057;-84
2022/02/08 09:59:52;;;;;;;0.10;0.10;;;;;;;14.67;100.00;100467.34;5022005;28;20052;-84
2022/02/08 10:03:11;;;;;;;0.10;0.10;;;;;;;14.75;100.00;100456.50;5022197;28;20236;-85
2022/02/08 10:06:14;;;;;;;0.85;0.63;;;;;;;14.78;100.00;100458.31;5022181;28;20450;-86
2022/02/08 10:09:18;;;;;;;0.30;0.30;;;;;;;14.67;100.00;100458.94;5019901;28;20228;-85
2022/02/08 10:12:29;;;;;;;0.10;0.00;;;;;;;14.81;100.00;100462.94;5000906;28;20056;-84
2022/02/08 10:22:21;;;;;;;0.38;0.20;;;;;;;15.01;100.00;100477.75;5013845;28;20396;-85
2022/02/08 10:28:59;;;;;;;0.30;0.13;;;;;;;15.10;100.00;100480.41;5015541;28;20060;-86
2022/02/08 10:38:46;;;;;;;0.10;0.10;;;;;;;15.12;100.00;100477.09;5023039;28;20125;-84
2022/02/08 10:41:49;;;;;;;0.65;0.35;;;;;;;15.06;100.00;100502.28;5008010;28;20049;-84
2022/02/08 10:44:53;;;;;;;0.00;0.00;;;;;;;15.01;100.00;100494.56;5010921;28;20068;-83
2022/02/08 10:48:06;;;;;;;0.20;0.00;;;;;;;14.89;100.00;100506.91;5008411;28;20064;-83
2022/02/08 10:51:12;;;;;;;0.40;0.10;;;;;;;14.79;100.00;100505.47;5013787;28;20503;-83
2022/02/08 10:54:30;;;;;;;0.13;0.10;;;;;;;14.61;100.00;100516.97;5002214;28;20073;-82
2022/02/08 10:57:46;;;;;;;0.00;0.00;;;;;;;14.63;100.00;100503.22;5002270;28;20057;-84
2022/02/08 11:00:58;;;;;;;0.00;0.00;;;;;;;14.61;100.00;100522.56;5011551;28;20048;-83
2022/02/08 11:04:10;;;;;;;0.20;0.10;;;;;;;14.77;100.00;100519.22;5024724;28;20522;-84
2022/02/08 11:07:40;;;;;;;2.53;0.73;;;;;;;14.90;100.00;100525.28;5023634;28;20049;-83
2022/02/08 11:14:14;;;;;;;0.10;0.03;;;;;;;14.84;100.00;100524.44;5000216;28;20519;-80
2022/02/08 11:17:59;;;;;;;0.13;0.08;;;;;;;14.96;100.00;100526.13;5011984;28;20052;-80
2022/02/08 11:21:17;;;;;;;0.40;0.00;;;;;;;14.96;100.00;100520.53;5012365;28;20049;-80
2022/02/08 11:24:29;;;;;;;2.65;0.52;;;;;;;15.15;100.00;100516.19;5000461;28;20138;-80
2022/02/08 11:27:47;;;;;;;0.57;0.10;;;;;;;15.22;100.00;100505.78;5000309;28;20511;-80
2022/02/08 11:31:19;;;;;;;0.10;0.00;;;;;;;15.22;100.00;100500.97;5012892;28;20061;-80
2022/02/08 11:54:06;;;;;;;4.22;0.40;;;;;;;14.73;100.00;100507.44;5012776;28;20056;-82
2022/02/08 12:09:54;;;;;;;2.28;0.32;;;;;;;14.29;100.00;100485.13;5011680;28;20068;-81
2022/02/08 12:34:22;;;;;;;0.52;0.30;;;;;;;14.82;100.00;100479.28;5012844;28;20053;-84
2022/02/08 12:56:39;;;;;;;2.75;0.55;;;;;;;15.28;100.00;100473.72;5016671;28;20056;-83
2022/02/08 14:07:22;;;;;;;2.53;0.65;;;;;;;15.03;100.00;100449.97;5016741;28;20061;-84
2022/02/08 14:14:02;;;;;;;2.80;0.40;;;;;;;15.08;100.00;100438.03;5014183;28;20424;-84
2022/02/08 14:30:12;;;;;;;5.25;0.55;;;;;;;15.04;100.00;100443.09;5002803;28;20061;-82
2022/02/08 15:00:14;;;;;;;2.83;0.20;;;;;;;15.19;100.00;100437.41;5030155;28;20053;-85
2022/02/08 15:07:25;;;;;;;0.15;0.15;;;;;;;15.11;100.00;100442.69;5014748;28;20052;-84
2022/02/08 15:09:59;;;;;;;0.50;0.10;;;;;;;15.13;100.00;100440.16;5013214;28;20056;-84
2022/02/08 15:13:04;;;;;;;0.20;0.20;;;;;;;15.08;100.00;100435.25;5000715;28;20065;-83
2022/02/08 15:16:21;;;;;;;0.73;0.35;;;;;;;15.00;100.00;100455.78;5013017;28;20064;-83
2022/02/08 15:19:24;;;;;;;0.20;0.10;;;;;;;15.05;100.00;100444.63;5000691;28;20049;-83
2022/02/08 15:22:27;;;;;;;2.00;0.20;;;;;;;15.09;100.00;100438.81;5000879;28;20052;-83
2022/02/08 15:25:32;;;;;;;2.17;0.43;;;;;;;15.05;100.00;100441.81;4999535;28;20061;-83
2022/02/08 15:28:36;;;;;;;2.20;0.57;;;;;;;14.92;100.00;100438.59;5013031;28;20048;-83
2022/02/08 15:31:39;;;;;;;3.63;0.22;;;;;;;14.92;100.00;100438.59;5000715;28;20057;-86
2022/02/08 15:34:43;;;;;;;1.92;0.43;;;;;;;14.89;100.00;100436.03;4999967;28;20049;-82
2022/02/08 15:37:46;;;;;;;1.35;0.30;;;;;;;14.89;100.00;100436.81;5012431;28;20410;-83
2022/02/08 15:40:50;;;;;;;0.95;0.52;;;;;;;14.85;100.00;100435.47;5000280;28;20407;-84
2022/02/08 15:43:53;;;;;;;0.30;0.17;;;;;;;14.78;100.00;100431.03;5000666;28;20060;-84
2022/02/08 15:47:03;;;;;;;0.40;0.17;;;;;;;14.75;100.00;100443.22;5012886;28;20245;-83
2022/02/08 15:50:12;;;;;;;0.63;0.17;;;;;;;14.70;100.00;100429.94;5012320;28;20052;-83
2022/02/08 16:13:17;;;;;;;12.27;3.13;;;;;;;14.42;100.00;100437.19;5011971;28;20042;-82
2022/02/08 16:26:03;;;;;;;8.20;1.65;;;;;;;14.32;100.00;100439.31;5011742;28;20072;-80
2022/02/08 16:50:40;;;;;;;0.22;0.20;;;;;;;14.24;100.00;100428.97;4997408;28;20057;-81
2022/02/08 16:53:43;;;;;;;1.48;0.25;;;;;;;14.20;100.00;100425.63;5011817;28;20061;-81
2022/02/08 16:59:50;;;;;;;5.13;0.75;;;;;;;14.17;100.00;100434.97;5024453;28;20419;-81
2022/02/08 17:02:58;;;;;;;1.38;0.73;;;;;;;14.10;100.00;100436.16;5011820;28;20129;-83
2022/02/08 17:06:02;;;;;;;7.82;0.88;;;;;;;14.07;100.00;100431.53;5011551;28;20673;-82
2022/02/08 17:09:16;;;;;;;4.22;0.93;;;;;;;14.05;100.00;100431.25;5011161;28;20053;-82
2022/02/08 17:12:30;;;;;;;2.50;0.88;;;;;;;14.01;100.00;100424.31;4999300;28;20069;-80
2022/02/08 17:15:50;;;;;;;9.40;0.88;;;;;;;14.01;100.00;100424.31;4998943;28;20404;-82
2022/02/08 17:45:58;;;;;;;2.20;0.40;;;;;;;13.69;100.00;100440.84;5007020;28;20122;-84
2022/02/08 17:49:02;;;;;;;0.52;0.15;;;;;;;13.60;100.00;100435.31;5001240;28;20486;-85
2022/02/08 17:52:06;;;;;;;0.30;0.28;;;;;;;13.51;100.00;100432.63;5015753;28;20515;-86
2022/02/08 17:55:11;;;;;;;0.77;0.43;;;;;;;13.41;100.00;100425.56;5003913;28;20053;-85
2022/02/08 17:58:15;;;;;;;0.40;0.40;;;;;;;13.35;100.00;100430.31;5003973;28;20061;-84
2022/02/08 18:01:20;;;;;;;4.57;0.63;;;;;;;13.28;100.00;100424.28;5015747;28;20053;-85
2022/02/08 18:04:24;;;;;;;0.75;0.13;;;;;;;13.21;100.00;100413.50;5015592;28;20081;-86
2022/02/08 18:07:30;;;;;;;1.10;0.77;;;;;;;13.10;100.00;100408.47;5003698;28;20052;-84
2022/02/08 18:10:34;;;;;;;0.50;0.10;;;;;;;13.09;100.00;100411.72;5003133;28;20065;-85
2022/02/08 18:13:41;;;;;;;0.50;0.43;;;;;;;13.03;100.00;100425.59;5003440;28;20499;-85
2022/02/08 18:16:51;;;;;;;4.90;0.47;;;;;;;12.97;100.00;100433.09;5003587;28;20057;-84
2022/02/08 18:20:25;;;;;;;0.30;0.30;;;;;;;13.05;100.00;100428.72;5002903;28;20061;-85
2022/02/08 19:04:14;;;;;;;0.10;0.00;;;;;;;12.28;100.00;100410.28;5014051;28;20049;-83
2022/02/08 19:19:55;;;;;;;0.10;0.00;;;;;;;12.85;100.00;100403.34;5019829;28;20113;-88
2022/02/08 19:22:58;;;;;;;0.10;0.10;;;;;;;12.89;100.00;100420.72;5023357;28;20052;-89
2022/02/08 19:26:05;;;;;;;0.25;0.20;;;;;;;12.75;100.00;100415.88;5022037;28;20124;-94
2022/02/08 19:29:08;;;;;;;0.30;0.30;;;;;;;12.91;100.00;100409.81;5034143;28;20487;-91
2022/02/08 19:32:12;;;;;;;0.10;0.03;;;;;;;12.94;100.00;100397.69;5014780;28;20053;-88
2022/02/08 19:35:16;;;;;;;0.55;0.55;;;;;;;12.94;100.00;100394.91;5014457;28;20068;-88
2022/02/08 19:38:25;;;;;;;1.33;0.30;;;;;;;12.94;100.00;100395.69;5002567;28;20057;-86
2022/02/08 19:41:28;;;;;;;0.57;0.17;;;;;;;12.93;100.00;100393.34;5014106;28;20057;-87
2022/02/08 19:44:40;;;;;;;0.65;0.30;;;;;;;12.90;100.00;100385.94;5001603;28;20439;-85
2022/02/08 19:47:44;;;;;;;1.83;0.35;;;;;;;12.89;100.00;100387.16;5002001;28;20072;-86
2022/02/08 19:50:49;;;;;;;1.65;0.55;;;;;;;12.87;100.00;100386.88;5013994;28;20072;-85
2022/02/08 19:53:55;;;;;;;1.27;0.30;;;;;;;12.82;100.00;100388.31;5013741;28;20053;-87
2022/02/08 20:00:36;;;;;;;0.22;0.10;;;;;;;12.80;100.00;100395.63;5014223;28;20057;-87
2022/02/08 20:03:43;;;;;;;1.48;0.30;;;;;;;12.77;100.00;100379.81;5001789;28;20053;-86
2022/02/08 20:06:48;;;;;;;0.20;0.10;;;;;;;12.73;100.00;100385.59;5001905;28;20056;-85
2022/02/08 20:09:52;;;;;;;1.10;0.20;;;;;;;12.82;100.00;100398.75;5001948;28;20049;-89
2022/02/08 20:12:56;;;;;;;1.05;0.20;;;;;;;12.83;100.00;100392.66;5013756;28;20526;-90
2022/02/08 20:16:00;;;;;;;0.28;0.28;;;;;;;12.86;100.00;100379.75;5014532;28;20053;-90
2022/02/08 20:19:06;;;;;;;0.68;0.52;;;;;;;12.78;100.00;100370.19;5014945;28;20059;-90
2022/02/08 20:22:12;;;;;;;0.10;0.05;;;;;;;12.75;100.00;100374.72;5034679;28;20053;-90
2022/02/08 20:25:18;;;;;;;0.10;0.00;;;;;;;12.74;100.00;100375.19;5021493;28;20056;-88
2022/02/08 20:28:35;;;;;;;0.10;0.10;;;;;;;12.66;100.00;100380.38;5021813;28;20064;-88
2022/02/08 20:31:39;;;;;;;1.17;0.35;;;;;;;12.64;100.00;100382.09;4982432;28;20053;-84
2022/02/08 20:34:42;;;;;;;0.20;0.15;;;;;;;12.74;100.00;100380.78;4994638;28;20053;-88
2022/02/08 20:37:48;;;;;;;0.25;0.13;;;;;;;12.83;100.00;100380.69;4981732;28;20600;-89
2022/02/08 20:40:54;;;;;;;4.10;1.27;;;;;;;12.76;100.00;100378.25;4996583;28;20423;-88
2022/02/08 20:43:57;;;;;;;0.10;0.10;;;;;;;12.66;100.00;100379.59;5001783;28;20049;-88
2022/02/08 20:47:16;;;;;;;5.97;0.73;;;;;;;12.63;100.00;100369.38;5001654;28;20052;-85
2022/02/08 20:50:24;;;;;;;0.10;0.10;;;;;;;12.55;100.00;100374.56;5001920;28;20057;-89
2022/02/08 20:53:46;;;;;;;0.20;0.10;;;;;;;12.62;100.00;100382.59;5014770;28;20057;-91
2022/02/08 20:57:00;;;;;;;0.10;0.10;;;;;;;12.64;100.00;100382.09;5002491;28;20407;-83
2022/02/08 21:00:10;;;;;;;0.20;0.10;;;;;;;12.71;100.00;100387.34;5000894;28;20535;-84
2022/02/08 21:03:24;;;;;;;0.50;0.43;;;;;;;12.62;100.00;100390.97;5001814;28;20052;-87
2022/02/08 21:06:29;;;;;;;0.50;0.28;;;;;;;12.58;100.00;100393.16;5001677;28;20053;-88
2022/02/08 21:09:32;;;;;;;1.75;0.10;;;;;;;12.60;100.00;100395.47;5001556;28;20046;-87
2022/02/08 21:12:50;;;;;;;0.88;0.60;;;;;;;12.61;100.00;100377.44;5001347;28;20056;-85
2022/02/08 21:15:54;;;;;;;2.90;0.57;;;;;;;12.64;100.00;100379.31;5001460;28;20428;-86
2022/02/08 21:18:58;;;;;;;0.90;0.75;;;;;;;12.67;100.00;100383.91;5001531;28;20053;-85
2022/02/08 21:22:01;;;;;;;2.85;0.43;;;;;;;12.66;100.00;100385.97;5001499;28;20086;-88
2022/02/08 21:25:06;;;;;;;0.30;0.22;;;;;;;12.72;100.00;100372.88;4985058;28;20077;-89
2022/02/08 21:28:11;;;;;;;0.30;0.20;;;;;;;12.77;100.00;100374.22;4998697;28;20065;-90
2022/02/08 21:54:01;;;;;;;3.50;0.22;;;;;;;12.64;100.00;100376.50;5017669;28;20046;-86
2022/02/08 21:57:07;;;;;;;0.65;0.28;;;;;;;12.70;100.00;100369.00;5008324;28;20057;-86
2022/02/08 22:00:11;;;;;;;0.10;0.00;;;;;;;12.67;100.00;100369.94;5004271;28;20053;-84
2022/02/08 22:03:15;;;;;;;0.20;0.10;;;;;;;12.71;100.00;100365.72;5003028;28;20097;-83
2022/02/08 22:06:19;;;;;;;0.22;0.22;;;;;;;12.65;100.00;100369.66;5002561;28;20129;-83
2022/02/08 22:09:26;;;;;;;2.08;0.57;;;;;;;12.61;100.00;100369.06;5002317;28;20057;-82
2022/02/08 22:22:26;;;;;;;0.40;0.20;;;;;;;12.54;100.00;100358.28;4995356;28;20056;-84
2022/02/08 22:31:44;;;;;;;1.45;0.55;;;;;;;12.55;100.00;100362.59;4995331;28;20049;-83
2022/02/08 22:34:57;;;;;;;1.60;0.40;;;;;;;12.58;100.00;100361.66;4982662;28;20053;-83
2022/02/08 22:38:17;;;;;;;1.35;0.35;;;;;;;12.62;100.00;100353.88;4983317;28;20053;-82
2022/02/08 22:41:28;;;;;;;0.90;0.40;;;;;;;12.67;100.00;100355.97;4992959;28;20053;-82
2022/02/08 22:44:42;;;;;;;2.75;0.40;;;;;;;12.62;100.00;100339.88;4983228;28;20049;-83
2022/02/08 22:47:46;;;;;;;0.10;0.10;;;;;;;12.56;100.00;100336.22;4983273;28;20061;-83
2022/02/08 22:50:50;;;;;;;0.20;0.10;;;;;;;12.59;100.00;100344.41;4994826;28;20057;-82
2022/02/08 22:53:53;;;;;;;0.10;0.10;;;;;;;12.54;100.00;100344.31;4994944;28;20053;-83
2022/02/08 22:56:57;;;;;;;3.45;0.60;;;;;;;12.52;100.00;100341.97;4982496;28;20744;-82
2022/02/08 23:00:05;;;;;;;10.55;0.68;;;;;;;12.53;100.00;100348.34;4990314;28;20053;-83